sensor_id;sensor_type;location;lat;lon;timestamp;P1;durP1;ratioP1;P2;durP2;ratioP2
34481;SDS011;20720;48.886;9.388;2023-07-22T00:00:44;7.63;;;2.22;;
34481;SDS011;20720;48.886;9.388;2023-07-22T00:03:09;4.63;;;2.53;;
34481;SDS011;20720;48.886;9.388;2023-07-22T00:05:35;4.60;;;2.05;;
34481;SDS011;20720;48.886;9.388;2023-07-22T00:08:00;5.13;;;2.78;;
34481;SDS011;20720;48.886;9.388;2023-07-22T00:10:25;6.57;;;2.60;;
34481;SDS011;20720;48.886;9.388;2023-07-22T00:12:51;5.28;;;2.17;;
34481;SDS011;20720;48.886;9.388;2023-07-22T00:15:16;4.05;;;2.35;;
34481;SDS011;20720;48.886;9.388;2023-07-22T00:17:41;3.08;;;2.08;;
34481;SDS011;20720;48.886;9.388;2023-07-22T00:20:07;4.63;;;2.45;;
34481;SDS011;20720;48.886;9.388;2023-07-22T00:22:36;6.63;;;2.53;;
34481;SDS011;20720;48.886;9.388;2023-07-22T00:25:03;5.55;;;2.72;;
34481;SDS011;20720;48.886;9.388;2023-07-22T00:27:29;3.15;;;2.17;;
34481;SDS011;20720;48.886;9.388;2023-07-22T00:29:54;6.78;;;2.25;;
34481;SDS011;20720;48.886;9.388;2023-07-22T00:32:19;3.45;;;2.30;;
34481;SDS011;20720;48.886;9.388;2023-07-22T00:34:45;3.00;;;1.90;;
34481;SDS011;20720;48.886;9.388;2023-07-22T00:37:10;3.85;;;2.10;;
34481;SDS011;20720;48.886;9.388;2023-07-22T00:39:36;4.68;;;2.28;;
34481;SDS011;20720;48.886;9.388;2023-07-22T00:42:01;4.15;;;2.17;;
34481;SDS011;20720;48.886;9.388;2023-07-22T00:44:26;2.97;;;1.80;;
34481;SDS011;20720;48.886;9.388;2023-07-22T00:46:53;6.15;;;2.92;;
34481;SDS011;20720;48.886;9.388;2023-07-22T00:49:21;3.38;;;2.08;;
34481;SDS011;20720;48.886;9.388;2023-07-22T00:51:48;2.90;;;1.85;;
34481;SDS011;20720;48.886;9.388;2023-07-22T00:54:13;2.83;;;1.92;;
34481;SDS011;20720;48.886;9.388;2023-07-22T00:56:39;3.38;;;2.00;;
34481;SDS011;20720;48.886;9.388;2023-07-22T00:59:05;3.13;;;2.05;;
34481;SDS011;20720;48.886;9.388;2023-07-22T01:01:31;2.85;;;1.95;;
34481;SDS011;20720;48.886;9.388;2023-07-22T01:03:56;3.60;;;2.03;;
34481;SDS011;20720;48.886;9.388;2023-07-22T01:06:21;7.43;;;2.20;;
34481;SDS011;20720;48.886;9.388;2023-07-22T01:08:49;3.53;;;1.92;;
34481;SDS011;20720;48.886;9.388;2023-07-22T01:11:14;3.72;;;2.03;;
34481;SDS011;20720;48.886;9.388;2023-07-22T01:13:40;5.50;;;1.80;;
34481;SDS011;20720;48.886;9.388;2023-07-22T01:16:06;5.63;;;2.30;;
34481;SDS011;20720;48.886;9.388;2023-07-22T01:18:34;3.72;;;2.22;;
34481;SDS011;20720;48.886;9.388;2023-07-22T01:21:00;3.80;;;1.80;;
34481;SDS011;20720;48.886;9.388;2023-07-22T01:23:26;2.70;;;1.88;;
34481;SDS011;20720;48.886;9.388;2023-07-22T01:25:51;4.70;;;1.48;;
34481;SDS011;20720;48.886;9.388;2023-07-22T01:28:17;5.72;;;2.20;;
34481;SDS011;20720;48.886;9.388;2023-07-22T01:30:42;3.75;;;1.98;;
34481;SDS011;20720;48.886;9.388;2023-07-22T01:33:07;3.08;;;1.98;;
34481;SDS011;20720;48.886;9.388;2023-07-22T01:35:33;2.85;;;1.65;;
34481;SDS011;20720;48.886;9.388;2023-07-22T01:37:58;3.42;;;1.95;;
34481;SDS011;20720;48.886;9.388;2023-07-22T01:40:24;3.42;;;1.60;;
34481;SDS011;20720;48.886;9.388;2023-07-22T01:42:49;5.60;;;2.03;;
34481;SDS011;20720;48.886;9.388;2023-07-22T01:45:15;3.22;;;2.05;;
34481;SDS011;20720;48.886;9.388;2023-07-22T01:47:40;3.33;;;1.58;;
34481;SDS011;20720;48.886;9.388;2023-07-22T01:50:05;2.85;;;1.70;;
34481;SDS011;20720;48.886;9.388;2023-07-22T01:52:31;3.90;;;1.80;;
34481;SDS011;20720;48.886;9.388;2023-07-22T01:54:57;3.53;;;2.00;;
34481;SDS011;20720;48.886;9.388;2023-07-22T01:57:22;2.92;;;1.60;;
34481;SDS011;20720;48.886;9.388;2023-07-22T01:59:47;3.47;;;2.00;;
34481;SDS011;20720;48.886;9.388;2023-07-22T02:02:13;4.38;;;2.10;;
34481;SDS011;20720;48.886;9.388;2023-07-22T02:04:38;5.28;;;1.73;;
34481;SDS011;20720;48.886;9.388;2023-07-22T02:07:04;4.50;;;2.35;;
34481;SDS011;20720;48.886;9.388;2023-07-22T02:09:29;4.50;;;2.22;;
34481;SDS011;20720;48.886;9.388;2023-07-22T02:11:54;5.13;;;2.10;;
34481;SDS011;20720;48.886;9.388;2023-07-22T02:14:19;3.28;;;2.17;;
34481;SDS011;20720;48.886;9.388;2023-07-22T02:16:45;4.40;;;2.30;;
34481;SDS011;20720;48.886;9.388;2023-07-22T02:19:10;4.93;;;1.90;;
34481;SDS011;20720;48.886;9.388;2023-07-22T02:21:36;4.13;;;1.80;;
34481;SDS011;20720;48.886;9.388;2023-07-22T02:24:01;6.78;;;2.08;;
34481;SDS011;20720;48.886;9.388;2023-07-22T02:26:26;3.70;;;1.92;;
34481;SDS011;20720;48.886;9.388;2023-07-22T02:28:51;4.85;;;2.10;;
34481;SDS011;20720;48.886;9.388;2023-07-22T02:31:17;5.30;;;2.00;;
34481;SDS011;20720;48.886;9.388;2023-07-22T02:33:42;3.20;;;1.90;;
34481;SDS011;20720;48.886;9.388;2023-07-22T02:36:07;3.60;;;2.10;;
34481;SDS011;20720;48.886;9.388;2023-07-22T02:38:33;2.72;;;1.65;;
34481;SDS011;20720;48.886;9.388;2023-07-22T02:41:02;5.57;;;2.17;;
34481;SDS011;20720;48.886;9.388;2023-07-22T02:43:28;4.68;;;2.10;;
34481;SDS011;20720;48.886;9.388;2023-07-22T02:45:53;4.50;;;2.22;;
34481;SDS011;20720;48.886;9.388;2023-07-22T02:48:20;4.05;;;2.40;;
34481;SDS011;20720;48.886;9.388;2023-07-22T02:50:45;4.68;;;2.22;;
34481;SDS011;20720;48.886;9.388;2023-07-22T02:53:10;5.95;;;2.70;;
34481;SDS011;20720;48.886;9.388;2023-07-22T02:55:36;3.85;;;2.30;;
34481;SDS011;20720;48.886;9.388;2023-07-22T02:58:01;5.45;;;2.55;;
34481;SDS011;20720;48.886;9.388;2023-07-22T03:00:26;3.40;;;2.05;;
34481;SDS011;20720;48.886;9.388;2023-07-22T03:02:52;4.93;;;2.67;;
34481;SDS011;20720;48.886;9.388;2023-07-22T03:05:21;4.95;;;2.58;;
34481;SDS011;20720;48.886;9.388;2023-07-22T03:07:46;3.63;;;2.10;;
34481;SDS011;20720;48.886;9.388;2023-07-22T03:10:11;4.43;;;2.38;;
34481;SDS011;20720;48.886;9.388;2023-07-22T03:12:37;5.15;;;2.28;;
34481;SDS011;20720;48.886;9.388;2023-07-22T03:15:02;6.18;;;2.25;;
34481;SDS011;20720;48.886;9.388;2023-07-22T03:17:29;4.60;;;2.28;;
34481;SDS011;20720;48.886;9.388;2023-07-22T03:19:54;4.63;;;2.78;;
34481;SDS011;20720;48.886;9.388;2023-07-22T03:22:20;4.20;;;2.80;;
34481;SDS011;20720;48.886;9.388;2023-07-22T03:24:45;6.30;;;3.25;;
34481;SDS011;20720;48.886;9.388;2023-07-22T03:27:11;5.40;;;3.33;;
34481;SDS011;20720;48.886;9.388;2023-07-22T03:29:37;4.13;;;2.83;;
34481;SDS011;20720;48.886;9.388;2023-07-22T03:32:03;5.95;;;3.15;;
34481;SDS011;20720;48.886;9.388;2023-07-22T03:34:29;8.00;;;3.47;;
34481;SDS011;20720;48.886;9.388;2023-07-22T03:36:55;5.75;;;3.33;;
34481;SDS011;20720;48.886;9.388;2023-07-22T03:39:21;6.25;;;3.63;;
34481;SDS011;20720;48.886;9.388;2023-07-22T03:41:46;6.80;;;3.60;;
34481;SDS011;20720;48.886;9.388;2023-07-22T03:44:11;5.78;;;3.50;;
34481;SDS011;20720;48.886;9.388;2023-07-22T03:46:37;5.78;;;3.55;;
34481;SDS011;20720;48.886;9.388;2023-07-22T03:49:03;5.97;;;3.40;;
34481;SDS011;20720;48.886;9.388;2023-07-22T03:51:28;6.65;;;3.22;;
34481;SDS011;20720;48.886;9.388;2023-07-22T03:53:53;5.05;;;3.28;;
34481;SDS011;20720;48.886;9.388;2023-07-22T03:56:19;5.22;;;3.08;;
34481;SDS011;20720;48.886;9.388;2023-07-22T03:58:45;4.85;;;3.03;;
34481;SDS011;20720;48.886;9.388;2023-07-22T04:01:10;5.70;;;2.75;;
34481;SDS011;20720;48.886;9.388;2023-07-22T04:03:36;4.93;;;2.63;;
34481;SDS011;20720;48.886;9.388;2023-07-22T04:06:02;3.60;;;2.17;;
34481;SDS011;20720;48.886;9.388;2023-07-22T04:08:27;5.40;;;2.53;;
34481;SDS011;20720;48.886;9.388;2023-07-22T04:10:53;5.45;;;2.97;;
34481;SDS011;20720;48.886;9.388;2023-07-22T04:13:22;5.15;;;2.78;;
34481;SDS011;20720;48.886;9.388;2023-07-22T04:15:48;4.22;;;2.78;;
34481;SDS011;20720;48.886;9.388;2023-07-22T04:18:16;4.60;;;2.50;;
34481;SDS011;20720;48.886;9.388;2023-07-22T04:20:43;4.10;;;2.88;;
34481;SDS011;20720;48.886;9.388;2023-07-22T04:23:08;5.40;;;2.70;;
34481;SDS011;20720;48.886;9.388;2023-07-22T04:25:38;3.65;;;2.30;;
34481;SDS011;20720;48.886;9.388;2023-07-22T04:28:04;4.38;;;2.78;;
34481;SDS011;20720;48.886;9.388;2023-07-22T04:30:29;4.07;;;2.03;;
34481;SDS011;20720;48.886;9.388;2023-07-22T04:32:55;4.13;;;2.47;;
34481;SDS011;20720;48.886;9.388;2023-07-22T04:35:20;4.45;;;2.40;;
34481;SDS011;20720;48.886;9.388;2023-07-22T04:37:46;4.50;;;2.20;;
34481;SDS011;20720;48.886;9.388;2023-07-22T04:40:12;4.75;;;2.60;;
34481;SDS011;20720;48.886;9.388;2023-07-22T04:42:42;2.55;;;1.73;;
34481;SDS011;20720;48.886;9.388;2023-07-22T04:45:08;3.97;;;2.53;;
34481;SDS011;20720;48.886;9.388;2023-07-22T04:47:37;4.03;;;2.70;;
34481;SDS011;20720;48.886;9.388;2023-07-22T04:50:05;7.68;;;2.75;;
34481;SDS011;20720;48.886;9.388;2023-07-22T04:52:34;3.65;;;2.08;;
34481;SDS011;20720;48.886;9.388;2023-07-22T04:54:59;5.13;;;2.17;;
34481;SDS011;20720;48.886;9.388;2023-07-22T04:57:25;4.55;;;2.30;;
34481;SDS011;20720;48.886;9.388;2023-07-22T04:59:50;7.70;;;2.40;;
34481;SDS011;20720;48.886;9.388;2023-07-22T05:02:15;5.35;;;2.85;;
34481;SDS011;20720;48.886;9.388;2023-07-22T05:04:40;3.67;;;2.45;;
34481;SDS011;20720;48.886;9.388;2023-07-22T05:07:06;5.13;;;2.53;;
34481;SDS011;20720;48.886;9.388;2023-07-22T05:09:31;4.40;;;2.40;;
34481;SDS011;20720;48.886;9.388;2023-07-22T05:11:56;4.40;;;2.42;;
34481;SDS011;20720;48.886;9.388;2023-07-22T05:14:22;4.07;;;1.90;;
34481;SDS011;20720;48.886;9.388;2023-07-22T05:16:49;4.63;;;2.35;;
34481;SDS011;20720;48.886;9.388;2023-07-22T05:19:14;4.05;;;2.38;;
34481;SDS011;20720;48.886;9.388;2023-07-22T05:21:39;5.45;;;2.50;;
34481;SDS011;20720;48.886;9.388;2023-07-22T05:24:05;3.10;;;2.13;;
34481;SDS011;20720;48.886;9.388;2023-07-22T05:26:31;5.75;;;2.28;;
34481;SDS011;20720;48.886;9.388;2023-07-22T05:28:56;5.20;;;2.90;;
34481;SDS011;20720;48.886;9.388;2023-07-22T05:31:21;4.15;;;2.42;;
34481;SDS011;20720;48.886;9.388;2023-07-22T05:33:47;4.78;;;2.30;;
34481;SDS011;20720;48.886;9.388;2023-07-22T05:36:12;3.35;;;2.03;;
34481;SDS011;20720;48.886;9.388;2023-07-22T05:38:37;4.07;;;2.50;;
34481;SDS011;20720;48.886;9.388;2023-07-22T05:41:02;3.88;;;2.50;;
34481;SDS011;20720;48.886;9.388;2023-07-22T05:43:28;5.68;;;3.33;;
34481;SDS011;20720;48.886;9.388;2023-07-22T05:45:53;6.70;;;3.08;;
34481;SDS011;20720;48.886;9.388;2023-07-22T05:48:18;4.53;;;2.40;;
34481;SDS011;20720;48.886;9.388;2023-07-22T05:50:44;3.60;;;2.00;;
34481;SDS011;20720;48.886;9.388;2023-07-22T05:53:09;4.28;;;2.17;;
34481;SDS011;20720;48.886;9.388;2023-07-22T05:55:34;3.60;;;2.28;;
34481;SDS011;20720;48.886;9.388;2023-07-22T05:58:00;4.03;;;2.42;;
34481;SDS011;20720;48.886;9.388;2023-07-22T06:00:30;4.00;;;2.05;;
34481;SDS011;20720;48.886;9.388;2023-07-22T06:02:55;3.42;;;2.15;;
34481;SDS011;20720;48.886;9.388;2023-07-22T06:05:21;5.97;;;2.10;;
34481;SDS011;20720;48.886;9.388;2023-07-22T06:07:46;3.70;;;1.67;;
34481;SDS011;20720;48.886;9.388;2023-07-22T06:10:11;4.60;;;1.80;;
34481;SDS011;20720;48.886;9.388;2023-07-22T06:12:36;2.92;;;1.80;;
34481;SDS011;20720;48.886;9.388;2023-07-22T06:15:03;3.58;;;1.55;;
34481;SDS011;20720;48.886;9.388;2023-07-22T06:17:29;2.40;;;1.42;;
34481;SDS011;20720;48.886;9.388;2023-07-22T06:19:54;4.38;;;2.13;;
34481;SDS011;20720;48.886;9.388;2023-07-22T06:22:19;3.75;;;1.73;;
34481;SDS011;20720;48.886;9.388;2023-07-22T06:24:45;4.00;;;2.17;;
34481;SDS011;20720;48.886;9.388;2023-07-22T06:27:10;2.40;;;1.60;;
34481;SDS011;20720;48.886;9.388;2023-07-22T06:29:35;3.90;;;1.90;;
34481;SDS011;20720;48.886;9.388;2023-07-22T06:32:00;3.53;;;1.95;;
34481;SDS011;20720;48.886;9.388;2023-07-22T06:34:26;4.60;;;1.85;;
34481;SDS011;20720;48.886;9.388;2023-07-22T06:36:51;3.05;;;1.40;;
34481;SDS011;20720;48.886;9.388;2023-07-22T06:39:16;2.88;;;1.70;;
34481;SDS011;20720;48.886;9.388;2023-07-22T06:41:42;4.78;;;1.70;;
34481;SDS011;20720;48.886;9.388;2023-07-22T06:44:07;3.57;;;1.83;;
34481;SDS011;20720;48.886;9.388;2023-07-22T06:46:32;4.85;;;1.75;;
34481;SDS011;20720;48.886;9.388;2023-07-22T06:48:58;5.85;;;1.70;;
34481;SDS011;20720;48.886;9.388;2023-07-22T06:51:24;3.15;;;1.60;;
34481;SDS011;20720;48.886;9.388;2023-07-22T06:53:49;5.38;;;1.77;;
34481;SDS011;20720;48.886;9.388;2023-07-22T06:56:15;2.83;;;1.50;;
34481;SDS011;20720;48.886;9.388;2023-07-22T06:58:40;5.07;;;1.70;;
34481;SDS011;20720;48.886;9.388;2023-07-22T07:01:05;3.55;;;1.67;;
34481;SDS011;20720;48.886;9.388;2023-07-22T07:03:30;5.30;;;2.00;;
34481;SDS011;20720;48.886;9.388;2023-07-22T07:05:56;2.85;;;1.58;;
34481;SDS011;20720;48.886;9.388;2023-07-22T07:08:22;3.65;;;1.65;;
34481;SDS011;20720;48.886;9.388;2023-07-22T07:10:48;2.30;;;1.30;;
34481;SDS011;20720;48.886;9.388;2023-07-22T07:13:14;3.35;;;1.60;;
34481;SDS011;20720;48.886;9.388;2023-07-22T07:15:39;2.50;;;1.42;;
34481;SDS011;20720;48.886;9.388;2023-07-22T07:18:05;3.78;;;1.45;;
34481;SDS011;20720;48.886;9.388;2023-07-22T07:20:30;3.30;;;1.63;;
34481;SDS011;20720;48.886;9.388;2023-07-22T07:22:56;2.10;;;1.40;;
34481;SDS011;20720;48.886;9.388;2023-07-22T07:25:21;2.60;;;1.48;;
34481;SDS011;20720;48.886;9.388;2023-07-22T07:27:46;3.40;;;1.55;;
34481;SDS011;20720;48.886;9.388;2023-07-22T07:30:12;3.50;;;2.00;;
34481;SDS011;20720;48.886;9.388;2023-07-22T07:32:37;3.05;;;1.50;;
34481;SDS011;20720;48.886;9.388;2023-07-22T07:35:03;2.20;;;1.30;;
34481;SDS011;20720;48.886;9.388;2023-07-22T07:37:29;3.00;;;1.52;;
34481;SDS011;20720;48.886;9.388;2023-07-22T07:39:55;3.30;;;1.50;;
34481;SDS011;20720;48.886;9.388;2023-07-22T07:42:24;2.22;;;1.45;;
34481;SDS011;20720;48.886;9.388;2023-07-22T07:44:50;2.60;;;1.23;;
34481;SDS011;20720;48.886;9.388;2023-07-22T07:47:17;2.53;;;1.30;;
34481;SDS011;20720;48.886;9.388;2023-07-22T07:49:42;3.73;;;1.93;;
34481;SDS011;20720;48.886;9.388;2023-07-22T07:52:07;3.03;;;1.55;;
34481;SDS011;20720;48.886;9.388;2023-07-22T07:54:32;3.15;;;1.50;;
34481;SDS011;20720;48.886;9.388;2023-07-22T07:56:58;2.15;;;1.40;;
34481;SDS011;20720;48.886;9.388;2023-07-22T07:59:23;6.53;;;1.53;;
34481;SDS011;20720;48.886;9.388;2023-07-22T08:01:48;3.17;;;1.60;;
34481;SDS011;20720;48.886;9.388;2023-07-22T08:04:13;3.40;;;1.70;;
34481;SDS011;20720;48.886;9.388;2023-07-22T08:06:38;4.07;;;1.53;;
34481;SDS011;20720;48.886;9.388;2023-07-22T08:09:04;5.40;;;1.48;;
34481;SDS011;20720;48.886;9.388;2023-07-22T08:11:30;2.60;;;1.50;;
34481;SDS011;20720;48.886;9.388;2023-07-22T08:13:56;3.30;;;1.40;;
34481;SDS011;20720;48.886;9.388;2023-07-22T08:16:21;3.35;;;1.50;;
34481;SDS011;20720;48.886;9.388;2023-07-22T08:18:46;3.33;;;1.70;;
34481;SDS011;20720;48.886;9.388;2023-07-22T08:21:12;2.67;;;1.60;;
34481;SDS011;20720;48.886;9.388;2023-07-22T08:23:37;2.55;;;1.38;;
34481;SDS011;20720;48.886;9.388;2023-07-22T08:26:03;1.88;;;1.08;;
34481;SDS011;20720;48.886;9.388;2023-07-22T08:28:30;2.60;;;1.42;;
34481;SDS011;20720;48.886;9.388;2023-07-22T08:30:56;3.40;;;1.63;;
34481;SDS011;20720;48.886;9.388;2023-07-22T08:33:22;1.83;;;1.13;;
34481;SDS011;20720;48.886;9.388;2023-07-22T08:35:48;2.92;;;1.33;;
34481;SDS011;20720;48.886;9.388;2023-07-22T08:38:15;2.20;;;1.45;;
34481;SDS011;20720;48.886;9.388;2023-07-22T08:40:40;2.72;;;1.40;;
34481;SDS011;20720;48.886;9.388;2023-07-22T08:43:06;2.30;;;1.25;;
34481;SDS011;20720;48.886;9.388;2023-07-22T08:45:33;2.58;;;1.45;;
34481;SDS011;20720;48.886;9.388;2023-07-22T08:48:04;3.70;;;2.40;;
34481;SDS011;20720;48.886;9.388;2023-07-22T08:50:55;5.38;;;1.70;;
34481;SDS011;20720;48.886;9.388;2023-07-22T08:53:22;2.30;;;1.33;;
34481;SDS011;20720;48.886;9.388;2023-07-22T08:55:50;3.97;;;1.08;;
34481;SDS011;20720;48.886;9.388;2023-07-22T08:58:16;2.58;;;1.30;;
34481;SDS011;20720;48.886;9.388;2023-07-22T09:00:41;2.85;;;1.58;;
34481;SDS011;20720;48.886;9.388;2023-07-22T09:03:07;2.10;;;1.10;;
34481;SDS011;20720;48.886;9.388;2023-07-22T09:05:34;2.88;;;1.60;;
34481;SDS011;20720;48.886;9.388;2023-07-22T09:08:06;3.13;;;1.27;;
34481;SDS011;20720;48.886;9.388;2023-07-22T09:10:32;5.47;;;1.58;;
34481;SDS011;20720;48.886;9.388;2023-07-22T09:12:59;2.88;;;1.05;;
34481;SDS011;20720;48.886;9.388;2023-07-22T09:15:25;6.70;;;1.40;;
34481;SDS011;20720;48.886;9.388;2023-07-22T09:17:51;2.22;;;1.23;;
34481;SDS011;20720;48.886;9.388;2023-07-22T09:20:17;2.70;;;1.13;;
34481;SDS011;20720;48.886;9.388;2023-07-22T09:22:51;2.20;;;1.30;;
34481;SDS011;20720;48.886;9.388;2023-07-22T09:25:18;2.92;;;1.17;;
34481;SDS011;20720;48.886;9.388;2023-07-22T09:27:48;3.22;;;1.50;;
34481;SDS011;20720;48.886;9.388;2023-07-22T09:32:47;3.42;;;1.20;;
34481;SDS011;20720;48.886;9.388;2023-07-22T09:35:13;2.63;;;1.20;;
34481;SDS011;20720;48.886;9.388;2023-07-22T09:37:38;4.72;;;1.50;;
34481;SDS011;20720;48.886;9.388;2023-07-22T09:40:13;2.10;;;1.02;;
34481;SDS011;20720;48.886;9.388;2023-07-22T09:42:51;2.03;;;1.20;;
34481;SDS011;20720;48.886;9.388;2023-07-22T09:45:18;2.78;;;1.35;;
34481;SDS011;20720;48.886;9.388;2023-07-22T09:47:46;4.38;;;1.30;;
34481;SDS011;20720;48.886;9.388;2023-07-22T09:50:13;1.98;;;1.02;;
34481;SDS011;20720;48.886;9.388;2023-07-22T09:52:42;3.78;;;1.42;;
34481;SDS011;20720;48.886;9.388;2023-07-22T09:55:09;2.60;;;1.20;;
34481;SDS011;20720;48.886;9.388;2023-07-22T09:57:34;1.67;;;1.13;;
34481;SDS011;20720;48.886;9.388;2023-07-22T10:00:00;3.30;;;1.05;;
34481;SDS011;20720;48.886;9.388;2023-07-22T10:02:26;3.03;;;1.50;;
34481;SDS011;20720;48.886;9.388;2023-07-22T10:04:52;2.97;;;1.55;;
34481;SDS011;20720;48.886;9.388;2023-07-22T10:07:19;2.55;;;1.52;;
34481;SDS011;20720;48.886;9.388;2023-07-22T10:09:44;2.58;;;1.15;;
34481;SDS011;20720;48.886;9.388;2023-07-22T10:12:11;2.22;;;1.27;;
34481;SDS011;20720;48.886;9.388;2023-07-22T10:14:39;2.28;;;1.10;;
34481;SDS011;20720;48.886;9.388;2023-07-22T10:17:05;2.45;;;1.50;;
34481;SDS011;20720;48.886;9.388;2023-07-22T10:19:31;3.10;;;1.15;;
34481;SDS011;20720;48.886;9.388;2023-07-22T10:21:57;1.85;;;1.00;;
34481;SDS011;20720;48.886;9.388;2023-07-22T10:24:22;2.63;;;1.10;;
34481;SDS011;20720;48.886;9.388;2023-07-22T10:26:48;1.67;;;1.08;;
34481;SDS011;20720;48.886;9.388;2023-07-22T10:29:16;2.20;;;1.20;;
34481;SDS011;20720;48.886;9.388;2023-07-22T10:31:43;3.95;;;1.13;;
34481;SDS011;20720;48.886;9.388;2023-07-22T10:34:08;4.90;;;1.30;;
34481;SDS011;20720;48.886;9.388;2023-07-22T10:36:34;2.33;;;1.20;;
34481;SDS011;20720;48.886;9.388;2023-07-22T10:39:00;2.47;;;1.25;;
34481;SDS011;20720;48.886;9.388;2023-07-22T10:41:25;1.98;;;1.10;;
34481;SDS011;20720;48.886;9.388;2023-07-22T10:43:54;1.85;;;1.00;;
34481;SDS011;20720;48.886;9.388;2023-07-22T10:46:31;2.97;;;1.05;;
34481;SDS011;20720;48.886;9.388;2023-07-22T10:49:08;1.40;;;0.80;;
34481;SDS011;20720;48.886;9.388;2023-07-22T10:51:36;1.95;;;1.25;;
34481;SDS011;20720;48.886;9.388;2023-07-22T10:54:02;3.42;;;1.10;;
34481;SDS011;20720;48.886;9.388;2023-07-22T10:56:28;2.05;;;1.10;;
34481;SDS011;20720;48.886;9.388;2023-07-22T11:06:30;1.80;;;1.13;;
34481;SDS011;20720;48.886;9.388;2023-07-22T11:08:55;2.28;;;0.90;;
34481;SDS011;20720;48.886;9.388;2023-07-22T11:11:21;2.00;;;1.17;;
34481;SDS011;20720;48.886;9.388;2023-07-22T11:14:11;1.95;;;1.00;;
34481;SDS011;20720;48.886;9.388;2023-07-22T11:16:38;2.40;;;1.27;;
34481;SDS011;20720;48.886;9.388;2023-07-22T11:19:04;4.80;;;1.10;;
34481;SDS011;20720;48.886;9.388;2023-07-22T11:21:29;2.85;;;1.00;;
34481;SDS011;20720;48.886;9.388;2023-07-22T11:23:55;2.03;;;1.27;;
34481;SDS011;20720;48.886;9.388;2023-07-22T11:26:20;3.80;;;1.23;;
34481;SDS011;20720;48.886;9.388;2023-07-22T11:28:45;3.42;;;1.08;;
34481;SDS011;20720;48.886;9.388;2023-07-22T11:31:11;1.95;;;1.00;;
34481;SDS011;20720;48.886;9.388;2023-07-22T11:33:40;1.88;;;1.00;;
34481;SDS011;20720;48.886;9.388;2023-07-22T11:36:09;4.45;;;1.00;;
34481;SDS011;20720;48.886;9.388;2023-07-22T11:38:34;3.97;;;1.10;;
34481;SDS011;20720;48.886;9.388;2023-07-22T11:40:59;1.70;;;0.70;;
34481;SDS011;20720;48.886;9.388;2023-07-22T11:43:25;3.65;;;0.95;;
34481;SDS011;20720;48.886;9.388;2023-07-22T11:45:51;1.40;;;0.80;;
34481;SDS011;20720;48.886;9.388;2023-07-22T11:48:16;1.25;;;0.75;;
34481;SDS011;20720;48.886;9.388;2023-07-22T11:50:42;3.70;;;1.08;;
34481;SDS011;20720;48.886;9.388;2023-07-22T11:53:07;2.00;;;0.93;;
34481;SDS011;20720;48.886;9.388;2023-07-22T11:55:34;2.00;;;1.10;;
34481;SDS011;20720;48.886;9.388;2023-07-22T11:58:01;1.58;;;0.90;;
34481;SDS011;20720;48.886;9.388;2023-07-22T12:00:26;1.33;;;0.82;;
34481;SDS011;20720;48.886;9.388;2023-07-22T12:02:51;3.65;;;1.10;;
34481;SDS011;20720;48.886;9.388;2023-07-22T12:05:22;6.20;;;1.02;;
34481;SDS011;20720;48.886;9.388;2023-07-22T12:07:47;2.03;;;0.90;;
34481;SDS011;20720;48.886;9.388;2023-07-22T12:10:12;1.30;;;0.90;;
34481;SDS011;20720;48.886;9.388;2023-07-22T12:12:45;2.15;;;1.00;;
34481;SDS011;20720;48.886;9.388;2023-07-22T12:15:18;1.80;;;1.00;;
34481;SDS011;20720;48.886;9.388;2023-07-22T12:17:54;1.88;;;1.00;;
34481;SDS011;20720;48.886;9.388;2023-07-22T12:20:26;1.80;;;0.82;;
34481;SDS011;20720;48.886;9.388;2023-07-22T12:22:53;5.13;;;1.08;;
34481;SDS011;20720;48.886;9.388;2023-07-22T12:25:18;1.40;;;0.90;;
34481;SDS011;20720;48.886;9.388;2023-07-22T12:27:44;2.70;;;1.00;;
34481;SDS011;20720;48.886;9.388;2023-07-22T12:30:10;2.45;;;0.90;;
34481;SDS011;20720;48.886;9.388;2023-07-22T12:32:35;2.65;;;1.17;;
34481;SDS011;20720;48.886;9.388;2023-07-22T12:35:01;2.10;;;1.05;;
34481;SDS011;20720;48.886;9.388;2023-07-22T12:37:28;1.88;;;1.08;;
34481;SDS011;20720;48.886;9.388;2023-07-22T12:39:53;2.10;;;1.10;;
34481;SDS011;20720;48.886;9.388;2023-07-22T12:42:18;1.60;;;0.93;;
34481;SDS011;20720;48.886;9.388;2023-07-22T12:44:44;2.30;;;1.20;;
34481;SDS011;20720;48.886;9.388;2023-07-22T12:47:09;2.37;;;1.00;;
34481;SDS011;20720;48.886;9.388;2023-07-22T12:49:34;2.75;;;1.30;;
34481;SDS011;20720;48.886;9.388;2023-07-22T12:51:59;2.27;;;1.17;;
34481;SDS011;20720;48.886;9.388;2023-07-22T12:54:29;1.77;;;1.02;;
34481;SDS011;20720;48.886;9.388;2023-07-22T12:56:56;2.47;;;1.20;;
34481;SDS011;20720;48.886;9.388;2023-07-22T12:59:21;2.88;;;1.27;;
34481;SDS011;20720;48.886;9.388;2023-07-22T13:01:47;1.85;;;1.23;;
34481;SDS011;20720;48.886;9.388;2023-07-22T13:04:12;2.15;;;1.20;;
34481;SDS011;20720;48.886;9.388;2023-07-22T13:06:37;2.47;;;1.40;;
34481;SDS011;20720;48.886;9.388;2023-07-22T13:09:03;2.03;;;1.10;;
34481;SDS011;20720;48.886;9.388;2023-07-22T13:11:28;2.13;;;1.10;;
34481;SDS011;20720;48.886;9.388;2023-07-22T13:13:54;2.25;;;1.13;;
34481;SDS011;20720;48.886;9.388;2023-07-22T13:16:19;2.25;;;1.40;;
34481;SDS011;20720;48.886;9.388;2023-07-22T13:18:44;2.63;;;1.17;;
34481;SDS011;20720;48.886;9.388;2023-07-22T13:21:09;2.40;;;1.07;;
34481;SDS011;20720;48.886;9.388;2023-07-22T13:23:35;2.23;;;1.00;;
34481;SDS011;20720;48.886;9.388;2023-07-22T13:26:00;2.08;;;1.15;;
34481;SDS011;20720;48.886;9.388;2023-07-22T13:28:25;1.83;;;1.03;;
34481;SDS011;20720;48.886;9.388;2023-07-22T13:30:50;5.93;;;1.57;;
34481;SDS011;20720;48.886;9.388;2023-07-22T13:33:15;2.20;;;1.20;;
34481;SDS011;20720;48.886;9.388;2023-07-22T13:35:41;1.83;;;1.10;;
34481;SDS011;20720;48.886;9.388;2023-07-22T13:38:07;2.13;;;1.17;;
34481;SDS011;20720;48.886;9.388;2023-07-22T13:40:32;7.00;;;1.10;;
34481;SDS011;20720;48.886;9.388;2023-07-22T13:42:57;1.80;;;1.10;;
34481;SDS011;20720;48.886;9.388;2023-07-22T13:45:23;6.00;;;1.55;;
34481;SDS011;20720;48.886;9.388;2023-07-22T13:47:48;1.73;;;1.00;;
34481;SDS011;20720;48.886;9.388;2023-07-22T13:50:13;2.40;;;1.13;;
34481;SDS011;20720;48.886;9.388;2023-07-22T13:52:38;3.97;;;1.10;;
34481;SDS011;20720;48.886;9.388;2023-07-22T13:55:06;3.47;;;1.20;;
34481;SDS011;20720;48.886;9.388;2023-07-22T13:57:31;4.13;;;1.70;;
34481;SDS011;20720;48.886;9.388;2023-07-22T13:59:57;2.23;;;1.20;;
34481;SDS011;20720;48.886;9.388;2023-07-22T14:02:22;2.20;;;1.20;;
34481;SDS011;20720;48.886;9.388;2023-07-22T14:04:47;4.88;;;1.17;;
34481;SDS011;20720;48.886;9.388;2023-07-22T14:07:12;2.77;;;1.17;;
34481;SDS011;20720;48.886;9.388;2023-07-22T14:09:38;2.45;;;1.02;;
34481;SDS011;20720;48.886;9.388;2023-07-22T14:12:03;1.50;;;1.00;;
34481;SDS011;20720;48.886;9.388;2023-07-22T14:14:29;1.67;;;1.20;;
34481;SDS011;20720;48.886;9.388;2023-07-22T14:16:55;2.03;;;1.10;;
34481;SDS011;20720;48.886;9.388;2023-07-22T14:19:21;2.00;;;1.17;;
34481;SDS011;20720;48.886;9.388;2023-07-22T14:21:46;3.50;;;1.33;;
34481;SDS011;20720;48.886;9.388;2023-07-22T14:24:11;2.70;;;1.20;;
34481;SDS011;20720;48.886;9.388;2023-07-22T14:26:36;3.60;;;1.23;;
34481;SDS011;20720;48.886;9.388;2023-07-22T14:29:02;1.80;;;1.20;;
34481;SDS011;20720;48.886;9.388;2023-07-22T14:31:27;1.47;;;1.13;;
34481;SDS011;20720;48.886;9.388;2023-07-22T14:33:52;1.88;;;1.27;;
34481;SDS011;20720;48.886;9.388;2023-07-22T14:36:17;2.03;;;1.35;;
34481;SDS011;20720;48.886;9.388;2023-07-22T14:38:43;2.35;;;1.50;;
34481;SDS011;20720;48.886;9.388;2023-07-22T14:41:08;2.17;;;1.45;;
34481;SDS011;20720;48.886;9.388;2023-07-22T14:43:33;2.42;;;1.67;;
34481;SDS011;20720;48.886;9.388;2023-07-22T14:45:59;2.77;;;1.50;;
34481;SDS011;20720;48.886;9.388;2023-07-22T14:48:24;3.38;;;1.80;;
34481;SDS011;20720;48.886;9.388;2023-07-22T14:50:50;1.80;;;1.15;;